createdAt,value
2019-05-15T00:01:20.135Z,99.90
2019-05-15T00:03:49.569Z,99.90
2019-05-15T00:06:19.245Z,99.90
2019-05-15T00:08:48.782Z,99.90
2019-05-15T00:11:19.276Z,99.90
2019-05-15T00:13:48.906Z,99.90
2019-05-15T00:16:18.325Z,99.90
2019-05-15T00:18:48.264Z,99.90
2019-05-15T00:21:18.123Z,99.90
2019-05-15T00:23:49.513Z,99.90
2019-05-15T00:26:19.051Z,99.90
2019-05-15T00:28:48.475Z,99.90
2019-05-15T00:31:18.591Z,99.90
2019-05-15T00:33:48.333Z,99.90
2019-05-15T00:36:19.250Z,99.90
2019-05-15T00:38:48.822Z,99.90
2019-05-15T00:41:18.556Z,99.90
2019-05-15T00:43:49.451Z,99.90
2019-05-15T00:46:18.985Z,99.90
2019-05-15T00:48:48.913Z,99.90
2019-05-15T00:51:19.511Z,99.90
2019-05-15T00:53:49.172Z,99.90
2019-05-15T00:56:19.500Z,99.90
2019-05-15T00:58:48.983Z,99.90
2019-05-15T01:01:19.351Z,99.90
2019-05-15T01:03:49.332Z,99.90
2019-05-15T01:06:19.187Z,99.90
2019-05-15T01:08:48.717Z,99.90
2019-05-15T01:11:19.203Z,99.90
2019-05-15T01:13:48.633Z,99.90
2019-05-15T01:16:18.627Z,99.90
2019-05-15T01:18:49.108Z,99.90
2019-05-15T01:21:18.913Z,99.90
2019-05-15T01:23:48.586Z,99.90
2019-05-15T01:26:18.842Z,99.90
2019-05-15T01:28:49.597Z,99.90
2019-05-15T01:31:19.257Z,99.90
2019-05-15T01:33:48.887Z,99.90
2019-05-15T01:36:19.360Z,99.90
2019-05-15T01:38:48.811Z,99.90
2019-05-15T01:41:18.900Z,99.90
2019-05-15T01:43:49.113Z,99.90
2019-05-15T01:46:19.205Z,99.90
2019-05-15T01:48:49.319Z,99.90
2019-05-15T01:51:18.902Z,99.90
2019-05-15T01:53:48.430Z,99.90
2019-05-15T01:56:18.739Z,99.90
2019-05-15T01:58:48.805Z,99.90
2019-05-15T02:01:19.143Z,99.90
2019-05-15T02:03:49.274Z,99.90
2019-05-15T02:06:19.237Z,99.90
2019-05-15T02:08:49.742Z,99.90
2019-05-15T02:11:19.358Z,99.90
2019-05-15T02:13:48.730Z,99.90
2019-05-15T02:16:19.222Z,99.90
2019-05-15T02:18:49.217Z,99.90
2019-05-15T02:21:18.620Z,99.90
2019-05-15T02:23:48.333Z,99.90
2019-05-15T02:26:18.883Z,99.90
2019-05-15T02:28:48.920Z,99.90
2019-05-15T02:31:19.471Z,99.90
2019-05-15T02:33:49.986Z,99.90
2019-05-15T02:36:20.706Z,99.90
2019-05-15T02:38:50.319Z,99.90
2019-05-15T02:41:19.750Z,99.90
2019-05-15T02:43:50.097Z,99.90
2019-05-15T02:46:20.069Z,99.90
2019-05-15T02:48:49.484Z,99.90
2019-05-15T02:51:19.492Z,99.90
2019-05-15T02:53:50.047Z,99.90
2019-05-15T02:56:20.692Z,99.90
2019-05-15T02:58:50.225Z,99.90
2019-05-15T03:01:19.723Z,99.90
2019-05-15T03:03:50.122Z,99.90
2019-05-15T03:06:19.834Z,99.90
2019-05-15T03:08:49.957Z,99.90
2019-05-15T03:11:19.762Z,99.90
2019-05-15T03:13:50.392Z,99.90
2019-05-15T03:16:20.048Z,99.90
2019-05-15T03:18:50.623Z,99.90
2019-05-15T03:21:20.577Z,99.90
2019-05-15T03:23:50.913Z,99.90
2019-05-15T03:26:20.745Z,99.90
2019-05-15T03:28:50.106Z,99.90
2019-05-15T03:31:40.304Z,99.90
2019-05-15T03:33:54.292Z,99.90
2019-05-15T03:36:23.921Z,99.90
2019-05-15T03:38:52.824Z,99.90
2019-05-15T03:41:22.190Z,99.90
2019-05-15T03:43:51.648Z,99.90
2019-05-15T03:46:21.006Z,99.90
2019-05-15T03:48:50.378Z,99.90
2019-05-15T03:51:20.147Z,99.90
2019-05-15T03:53:49.998Z,99.90
2019-05-15T03:56:19.578Z,99.90
2019-05-15T03:58:49.547Z,99.90
2019-05-15T04:01:29.776Z,99.90
2019-05-15T04:03:50.259Z,99.90
2019-05-15T04:06:19.691Z,99.90
2019-05-15T04:08:49.806Z,99.90
2019-05-15T04:11:20.366Z,99.90
2019-05-15T04:13:50.311Z,99.90
2019-05-15T04:16:19.734Z,99.90
2019-05-15T04:18:49.375Z,99.90
2019-05-15T04:21:20.009Z,99.90
2019-05-15T04:23:51.174Z,99.90
2019-05-15T04:26:21.947Z,99.90
2019-05-15T04:28:54.493Z,99.90
2019-05-15T04:31:23.869Z,99.90
2019-05-15T04:33:53.238Z,99.90
2019-05-15T04:36:22.609Z,99.90
2019-05-15T04:38:51.988Z,99.90
2019-05-15T04:41:21.338Z,99.90
2019-05-15T04:43:50.715Z,99.90
2019-05-15T04:46:20.226Z,99.90
2019-05-15T04:48:50.467Z,99.90
2019-05-15T04:51:20.223Z,99.90
2019-05-15T04:53:50.418Z,99.90
2019-05-15T04:56:20.045Z,99.90
2019-05-15T04:58:50.674Z,99.90
2019-05-15T05:01:20.583Z,99.90
2019-05-15T05:03:50.061Z,99.90
2019-05-15T05:06:19.886Z,99.90
2019-05-15T05:08:50.069Z,99.90
2019-05-15T05:11:23.582Z,99.90
2019-05-15T05:13:50.789Z,99.90
2019-05-15T05:16:20.163Z,99.90
2019-05-15T05:18:50.009Z,99.90
2019-05-15T05:21:19.381Z,99.90
2019-05-15T05:23:48.749Z,99.90
2019-05-15T05:26:18.702Z,99.90
2019-05-15T05:28:49.050Z,99.90
2019-05-15T05:31:19.205Z,99.90
2019-05-15T05:33:48.864Z,99.90
2019-05-15T05:36:18.648Z,99.90
2019-05-15T05:38:49.310Z,99.90
2019-05-15T05:41:19.714Z,99.90
2019-05-15T05:43:49.154Z,99.90
2019-05-15T05:46:18.709Z,99.90
2019-05-15T05:48:49.002Z,99.90
2019-05-15T05:51:19.180Z,99.90
2019-05-15T05:53:48.783Z,99.90
2019-05-15T05:56:18.354Z,99.90
2019-05-15T05:58:49.143Z,99.90
2019-05-15T06:01:18.996Z,99.90
2019-05-15T06:03:49.243Z,99.90
2019-05-15T06:06:18.873Z,99.90
2019-05-15T06:08:48.268Z,99.90
2019-05-15T06:11:18.387Z,99.90
2019-05-15T06:13:52.349Z,99.90
2019-05-15T06:16:19.153Z,99.90
2019-05-15T06:18:49.312Z,99.90
2019-05-15T06:21:18.733Z,99.90
2019-05-15T06:23:55.336Z,99.90
2019-05-15T06:26:19.964Z,99.90
2019-05-15T06:28:49.501Z,99.90
2019-05-15T06:31:19.122Z,99.90
2019-05-15T06:33:49.028Z,99.90
2019-05-15T06:36:18.671Z,99.90
2019-05-15T06:38:48.871Z,99.90
2019-05-15T06:41:18.407Z,99.90
2019-05-15T06:43:48.376Z,99.90
2019-05-15T06:46:18.699Z,99.90
2019-05-15T06:48:48.735Z,99.90
2019-05-15T06:51:18.445Z,99.90
2019-05-15T06:53:49.126Z,99.90
2019-05-15T06:56:19.043Z,99.90
2019-05-15T06:58:48.693Z,99.90
2019-05-15T07:01:18.970Z,99.90
2019-05-15T07:03:48.665Z,99.90
2019-05-15T07:06:18.334Z,99.90
2019-05-15T07:08:49.652Z,99.90
2019-05-15T07:11:19.371Z,99.90
2019-05-15T07:13:49.449Z,99.90
2019-05-15T07:16:18.820Z,99.90
2019-05-15T07:18:48.664Z,99.90
2019-05-15T07:21:20.492Z,99.90
2019-05-15T07:23:49.749Z,99.90
2019-05-15T07:26:19.319Z,99.90
2019-05-15T07:28:48.792Z,99.90
2019-05-15T07:31:18.308Z,99.70
2019-05-15T07:33:49.111Z,98.80
2019-05-15T07:36:19.450Z,98.40
2019-05-15T07:38:48.901Z,98.40
2019-05-15T07:41:18.593Z,97.50
2019-05-15T07:43:49.405Z,97.50
2019-05-15T07:46:19.016Z,97.30
2019-05-15T07:48:49.215Z,97.00
2019-05-15T07:51:18.742Z,96.90
2019-05-15T07:53:48.952Z,96.60
2019-05-15T07:56:18.677Z,96.60
2019-05-15T07:58:52.534Z,96.20
2019-05-15T08:01:19.177Z,96.10
2019-05-15T08:03:59.042Z,96.00
2019-05-15T08:06:19.639Z,95.90
2019-05-15T08:08:49.015Z,95.90
2019-05-15T08:11:24.375Z,95.30
2019-05-15T08:13:49.492Z,94.90
2019-05-15T08:16:18.867Z,93.20
2019-05-15T08:18:48.490Z,93.40
2019-05-15T08:21:18.574Z,92.50
2019-05-15T08:23:48.584Z,91.80
2019-05-15T08:26:18.023Z,92.20
2019-05-15T08:28:48.675Z,92.00
2019-05-15T08:31:18.513Z,91.90
2019-05-15T08:33:48.314Z,91.90
2019-05-15T08:36:18.328Z,91.60
2019-05-15T08:38:48.655Z,91.10
2019-05-15T08:41:18.669Z,90.20
2019-05-15T08:43:48.655Z,90.00
2019-05-15T08:46:18.775Z,90.20
2019-05-15T08:48:49.076Z,88.80
2019-05-15T08:51:19.424Z,89.80
2019-05-15T08:53:48.997Z,88.90
2019-05-15T08:56:19.459Z,89.50
2019-05-15T08:58:48.999Z,88.30
2019-05-15T09:01:18.367Z,85.10
2019-05-15T09:03:48.877Z,86.50
2019-05-15T09:06:22.767Z,83.50
2019-05-15T09:08:50.048Z,84.90
2019-05-15T09:11:19.443Z,82.40
2019-05-15T09:13:53.665Z,82.30
2019-05-15T09:16:19.896Z,78.30
2019-05-15T09:18:49.274Z,78.50
2019-05-15T09:21:19.268Z,75.00
2019-05-15T09:23:50.008Z,75.10
2019-05-15T09:26:19.752Z,75.20
2019-05-15T09:28:49.583Z,73.80
2019-05-15T09:31:19.460Z,73.90
2019-05-15T09:33:49.378Z,74.70
2019-05-15T09:36:20.175Z,74.20
2019-05-15T09:38:50.061Z,73.70
2019-05-15T09:41:19.482Z,71.50
2019-05-15T09:43:48.862Z,69.40
2019-05-15T09:46:18.739Z,70.20
2019-05-15T09:48:51.576Z,63.50
2019-05-15T09:51:19.641Z,65.50
2019-05-15T09:53:49.086Z,64.50
2019-05-15T09:56:18.846Z,65.20
2019-05-15T09:58:48.959Z,65.60
2019-05-15T10:01:19.703Z,65.50
2019-05-15T10:03:49.364Z,62.30
2019-05-15T10:06:20.566Z,60.70
2019-05-15T10:08:49.842Z,59.10
2019-05-15T10:11:19.987Z,57.60
2019-05-15T10:13:49.437Z,57.60
2019-05-15T10:16:19.813Z,58.00
2019-05-15T10:18:50.785Z,57.20
2019-05-15T10:21:20.563Z,56.50
2019-05-15T10:23:49.947Z,57.30
2019-05-15T10:26:19.556Z,57.00
2019-05-15T10:28:49.587Z,57.40
2019-05-15T10:31:19.660Z,58.00
2019-05-15T10:33:49.428Z,55.40
2019-05-15T10:36:19.226Z,56.20
2019-05-15T10:38:49.182Z,55.10
2019-05-15T10:41:19.090Z,55.00
2019-05-15T10:43:56.030Z,54.20
2019-05-15T10:46:19.938Z,54.60
2019-05-15T10:48:49.662Z,55.00
2019-05-15T10:51:19.728Z,54.30
2019-05-15T10:53:49.327Z,53.80
2019-05-15T10:56:18.829Z,53.70
2019-05-15T10:58:50.542Z,55.00
2019-05-15T11:01:19.651Z,54.00
2019-05-15T11:03:49.749Z,54.50
2019-05-15T11:06:19.274Z,54.70
2019-05-15T11:08:51.418Z,52.90
2019-05-15T11:11:19.923Z,52.90
2019-05-15T11:13:49.314Z,52.90
2019-05-15T11:16:21.279Z,53.20
2019-05-15T11:18:53.321Z,50.90
2019-05-15T11:21:20.885Z,51.70
2019-05-15T11:23:50.307Z,51.00
2019-05-15T11:26:20.046Z,50.10
2019-05-15T11:28:50.061Z,51.30
2019-05-15T11:31:19.472Z,50.10
2019-05-15T11:33:49.394Z,50.70
2019-05-15T11:36:18.811Z,50.20
2019-05-15T11:38:48.738Z,49.80
2019-05-15T11:41:19.129Z,50.20
2019-05-15T11:43:49.626Z,50.10
2019-05-15T11:46:19.126Z,48.00
2019-05-15T11:48:49.783Z,46.20
2019-05-15T11:51:19.420Z,49.40
2019-05-15T11:53:49.316Z,46.70
2019-05-15T11:56:19.228Z,47.00
2019-05-15T11:58:48.665Z,45.80
2019-05-15T12:01:19.246Z,45.00
2019-05-15T12:03:49.132Z,46.10
2019-05-15T12:06:22.635Z,45.00
2019-05-15T12:08:49.599Z,44.20
2019-05-15T12:11:31.738Z,43.40
2019-05-15T12:13:50.086Z,44.90
2019-05-15T12:16:19.460Z,44.10
2019-05-15T12:18:48.839Z,44.70
2019-05-15T12:21:19.912Z,44.30
2019-05-15T12:23:49.614Z,43.60
2019-05-15T12:26:18.949Z,43.60
2019-05-15T12:28:49.030Z,42.20
2019-05-15T12:31:24.295Z,43.40
2019-05-15T12:33:49.837Z,40.60
2019-05-15T12:36:46.137Z,42.00
2019-05-15T12:38:50.629Z,40.20
2019-05-15T13:01:29.680Z,40.20
2019-05-15T13:03:59.059Z,40.30
2019-05-15T13:06:29.382Z,41.00
2019-05-15T13:08:59.482Z,40.40
2019-05-15T13:11:29.014Z,39.70
2019-05-15T13:13:59.089Z,41.40
2019-05-15T13:16:28.946Z,41.80
2019-05-15T13:18:58.872Z,40.30
2019-05-15T13:21:29.628Z,41.00
2019-05-15T13:23:59.104Z,41.00
2019-05-15T13:26:28.481Z,39.90
2019-05-15T13:28:58.455Z,40.70
2019-05-15T13:31:28.577Z,40.60
2019-05-15T13:33:58.759Z,41.40
2019-05-15T13:36:28.981Z,40.30
2019-05-15T13:38:58.742Z,41.80
2019-05-15T13:41:28.472Z,39.70
2019-05-15T13:43:58.517Z,40.90
2019-05-15T13:46:29.017Z,39.80
2019-05-15T13:48:59.551Z,40.50
2019-05-15T13:51:29.291Z,40.00
2019-05-15T13:53:58.638Z,39.10
2019-05-15T13:56:28.973Z,39.40
2019-05-15T13:58:58.807Z,38.60
2019-05-15T14:01:28.823Z,40.30
2019-05-15T14:03:58.829Z,40.20
2019-05-15T14:06:28.781Z,41.20
2019-05-15T14:08:58.306Z,39.40
2019-05-15T14:11:30.879Z,40.10
2019-05-15T14:13:59.485Z,40.90
2019-05-15T14:16:29.236Z,38.80
2019-05-15T14:18:58.916Z,39.80
2019-05-15T14:21:29.805Z,39.80
2019-05-15T14:24:01.530Z,39.50
2019-05-15T14:26:30.548Z,39.60
2019-05-15T14:28:59.920Z,39.80
2019-05-15T14:31:29.304Z,40.20
2019-05-15T14:33:58.685Z,39.10
2019-05-15T14:36:28.754Z,38.60
2019-05-15T14:38:58.817Z,40.00
2019-05-15T14:41:29.524Z,39.80
2019-05-15T14:44:11.838Z,41.10
2019-05-15T14:46:30.010Z,41.00
2019-05-15T14:48:59.388Z,41.40
2019-05-15T14:51:28.759Z,41.80
2019-05-15T14:53:58.460Z,40.80
2019-05-15T14:56:27.965Z,40.00
2019-05-15T14:58:58.600Z,39.40
2019-05-15T15:01:27.994Z,39.10
2019-05-15T15:03:58.120Z,40.10
2019-05-15T15:06:27.723Z,40.70
2019-05-15T15:08:59.237Z,39.60
2019-05-15T15:11:28.633Z,40.50
2019-05-15T15:13:58.007Z,40.90
2019-05-15T15:16:29.159Z,41.80
2019-05-15T15:18:58.585Z,41.20
2019-05-15T15:21:29.297Z,41.40
2019-05-15T15:23:58.919Z,41.10
2019-05-15T15:26:28.728Z,41.00
2019-05-15T15:28:59.013Z,41.80
2019-05-15T15:31:29.017Z,41.80
2019-05-15T15:33:58.632Z,42.20
2019-05-15T15:36:28.650Z,43.30
2019-05-15T15:38:58.826Z,43.80
2019-05-15T15:41:28.690Z,44.10
2019-05-15T15:43:58.809Z,42.00
2019-05-15T15:46:28.847Z,42.70
2019-05-15T15:48:59.807Z,43.30
2019-05-15T15:51:29.460Z,41.90
2019-05-15T15:53:58.835Z,41.90
2019-05-15T15:56:29.093Z,42.30
2019-05-15T15:58:59.398Z,41.80
2019-05-15T16:01:31.424Z,41.50
2019-05-15T16:04:00.091Z,41.10
2019-05-15T16:06:29.609Z,41.50
2019-05-15T16:08:59.783Z,40.80
2019-05-15T16:11:29.126Z,41.70
2019-05-15T16:13:58.768Z,42.30
2019-05-15T16:16:28.590Z,42.20
2019-05-15T16:18:58.275Z,41.30
2019-05-15T16:21:28.887Z,41.50
2019-05-15T16:23:58.449Z,41.70
2019-05-15T16:26:29.041Z,41.60
2019-05-15T16:29:01.718Z,42.30
2019-05-15T16:31:29.552Z,42.50
2019-05-15T16:33:59.632Z,42.40
2019-05-15T16:36:29.004Z,42.10
2019-05-15T16:39:07.812Z,41.20
2019-05-15T16:41:29.514Z,41.40
2019-05-15T16:43:58.882Z,41.60
2019-05-15T16:46:28.320Z,41.40
2019-05-15T16:48:58.590Z,42.00
2019-05-15T16:51:32.274Z,43.10
2019-05-15T16:54:00.044Z,42.70
2019-05-15T16:56:29.420Z,42.60
2019-05-15T16:58:59.690Z,42.60
2019-05-15T17:01:29.273Z,43.10
2019-05-15T17:03:58.921Z,43.10
2019-05-15T17:06:28.310Z,42.30
2019-05-15T17:08:58.049Z,42.60
2019-05-15T17:11:28.911Z,43.00
2019-05-15T17:13:59.265Z,44.10
2019-05-15T17:16:28.860Z,44.50
2019-05-15T17:18:58.506Z,46.70
2019-05-15T17:21:28.478Z,47.70
2019-05-15T17:23:58.312Z,48.70
2019-05-15T17:26:28.743Z,49.50
2019-05-15T17:28:58.406Z,50.00
2019-05-15T17:31:28.672Z,50.80
2019-05-15T17:33:58.440Z,50.90
2019-05-15T17:36:31.799Z,52.10
2019-05-15T17:38:59.002Z,52.70
2019-05-15T17:41:28.723Z,53.50
2019-05-15T17:43:58.251Z,53.70
2019-05-15T17:46:29.571Z,53.50
2019-05-15T17:49:07.065Z,54.40
2019-05-15T17:51:29.926Z,53.70
2019-05-15T17:53:59.315Z,54.90
2019-05-15T17:56:28.817Z,55.20
2019-05-15T17:58:58.310Z,54.80
2019-05-15T18:01:28.223Z,55.10
2019-05-15T18:03:59.343Z,55.20
2019-05-15T18:06:29.195Z,56.10
2019-05-15T18:08:59.319Z,56.00
2019-05-15T18:11:29.067Z,56.40
2019-05-15T18:13:58.441Z,56.80
2019-05-15T18:16:27.825Z,57.40
2019-05-15T18:18:58.605Z,57.30
2019-05-15T18:21:29.044Z,57.90
2019-05-15T18:23:58.801Z,58.60
2019-05-15T18:26:28.186Z,58.60
2019-05-15T18:28:58.393Z,59.00
2019-05-15T18:31:28.747Z,59.40
2019-05-15T18:33:58.984Z,59.80
2019-05-15T18:36:28.681Z,60.50
2019-05-15T18:38:58.901Z,60.50
2019-05-15T18:41:28.643Z,60.70
2019-05-15T18:43:58.066Z,60.50
2019-05-15T18:46:28.892Z,60.90
2019-05-15T18:48:58.419Z,62.10
2019-05-15T18:51:28.119Z,62.60
2019-05-15T18:53:58.772Z,63.20
2019-05-15T18:56:29.750Z,63.60
2019-05-15T18:58:59.395Z,64.20
2019-05-15T19:01:28.766Z,64.80
2019-05-15T19:04:00.495Z,66.20
2019-05-15T19:06:29.890Z,66.50
2019-05-15T19:08:59.247Z,68.00
2019-05-15T19:11:28.977Z,69.00
2019-05-15T19:13:59.040Z,69.70
2019-05-15T19:16:31.528Z,70.90
2019-05-15T19:18:59.720Z,71.80
2019-05-15T19:21:29.282Z,72.80
2019-05-15T19:23:58.655Z,73.70
2019-05-15T19:26:28.992Z,74.80
2019-05-15T19:28:59.313Z,75.50
2019-05-15T19:31:30.629Z,77.30
2019-05-15T19:33:59.959Z,77.60
2019-05-15T19:36:29.721Z,78.20
2019-05-15T19:38:59.101Z,79.80
2019-05-15T19:41:28.925Z,81.00
2019-05-15T19:43:58.325Z,81.00
2019-05-15T19:46:28.245Z,81.90
2019-05-15T19:48:58.240Z,83.10
2019-05-15T19:51:28.961Z,83.70
2019-05-15T19:53:58.894Z,84.50
2019-05-15T19:56:28.350Z,85.20
2019-05-15T19:58:58.179Z,86.40
2019-05-15T20:01:28.184Z,86.80
2019-05-15T20:03:58.724Z,86.80
2019-05-15T20:06:28.521Z,86.80
2019-05-15T20:08:58.730Z,87.20
2019-05-15T20:11:28.154Z,86.10
2019-05-15T20:13:58.402Z,86.60
2019-05-15T20:16:28.389Z,86.00
2019-05-15T20:18:58.261Z,86.40
2019-05-15T20:21:28.990Z,86.30
2019-05-15T20:23:58.824Z,86.20
2019-05-15T20:26:28.785Z,87.00
2019-05-15T20:28:58.170Z,87.40
2019-05-15T20:31:28.416Z,88.40
2019-05-15T20:34:05.683Z,89.10
2019-05-15T20:36:30.270Z,89.90
2019-05-15T20:39:00.026Z,90.10
2019-05-15T20:41:29.443Z,90.50
2019-05-15T20:43:58.820Z,90.90
2019-05-15T20:46:28.923Z,90.80
2019-05-15T20:48:58.482Z,91.10
2019-05-15T20:51:29.035Z,91.00
2019-05-15T20:53:58.500Z,91.20
2019-05-15T20:56:28.417Z,91.40
2019-05-15T20:58:58.367Z,91.80
2019-05-15T21:01:28.771Z,91.90
2019-05-15T21:03:59.508Z,92.00
2019-05-15T21:06:33.929Z,92.40
2019-05-15T21:09:04.140Z,92.30
2019-05-15T21:11:33.514Z,92.90
2019-05-15T21:14:03.009Z,92.80
2019-05-15T21:16:32.387Z,93.20
2019-05-15T21:19:01.765Z,93.60
2019-05-15T21:21:31.158Z,93.80
2019-05-15T21:24:00.979Z,94.10
2019-05-15T21:26:30.485Z,94.50
2019-05-15T21:28:59.935Z,95.10
2019-05-15T21:31:29.327Z,95.30
2019-05-15T21:33:58.954Z,95.50
2019-05-15T21:36:31.307Z,95.80
2019-05-15T21:38:59.486Z,96.00
2019-05-15T21:41:28.865Z,96.50
2019-05-15T21:43:59.333Z,96.30
2019-05-15T21:46:28.810Z,96.40
2019-05-15T21:49:00.772Z,96.60
2019-05-15T21:51:29.266Z,96.70
2019-05-15T21:54:01.293Z,97.00
2019-05-15T21:56:29.798Z,96.90
2019-05-15T21:59:01.226Z,97.20
2019-05-15T22:01:30.747Z,97.50
2019-05-15T22:04:00.356Z,97.80
2019-05-15T22:06:29.754Z,97.90
2019-05-15T22:08:59.142Z,98.10
2019-05-15T22:11:29.707Z,98.20
2019-05-15T22:13:59.246Z,98.50
2019-05-15T22:16:28.974Z,98.40
2019-05-15T22:18:58.378Z,98.80
2019-05-15T22:21:27.786Z,99.00
2019-05-15T22:23:59.847Z,99.00
2019-05-15T22:26:28.971Z,99.30
2019-05-15T22:28:58.645Z,99.40
2019-05-15T22:31:28.271Z,99.60
2019-05-15T22:33:58.503Z,99.60
2019-05-15T22:36:28.194Z,99.90
2019-05-15T22:38:59.397Z,99.90
2019-05-15T22:41:28.890Z,99.90
2019-05-15T22:43:58.277Z,99.90
2019-05-15T22:46:29.017Z,99.90
2019-05-15T22:48:59.137Z,99.90
2019-05-15T22:51:28.935Z,99.90
2019-05-15T22:53:58.455Z,99.90
2019-05-15T22:56:29.720Z,99.90
2019-05-15T22:58:58.921Z,99.90
2019-05-15T23:01:28.302Z,99.90
2019-05-15T23:03:58.366Z,99.90
2019-05-15T23:06:28.265Z,99.90
2019-05-15T23:08:58.190Z,99.90
2019-05-15T23:11:29.736Z,99.90
2019-05-15T23:13:58.783Z,99.90
2019-05-15T23:16:28.449Z,99.90
2019-05-15T23:18:58.835Z,99.90
2019-05-15T23:21:28.810Z,99.90
2019-05-15T23:23:58.344Z,99.90
2019-05-15T23:26:28.328Z,99.90
2019-05-15T23:28:58.551Z,99.90
2019-05-15T23:31:28.192Z,99.90
2019-05-15T23:33:57.592Z,99.90
2019-05-15T23:36:28.449Z,99.90
2019-05-15T23:38:58.386Z,99.90
2019-05-15T23:41:28.182Z,99.90
2019-05-15T23:43:57.523Z,99.90
2019-05-15T23:46:28.819Z,99.90
2019-05-15T23:48:58.832Z,99.90
2019-05-15T23:51:28.377Z,99.90
2019-05-15T23:53:58.754Z,99.90
2019-05-15T23:56:29.110Z,99.90
2019-05-15T23:58:58.654Z,99.90
